リヤド の空港の天気 - METARとTAF

キング・ハーリド国際空港(リヤド) ( OERK / RUH ) - サウジアラビア リヤド
飛行場実況気象(Metar)
観測時間08/16 09:00 AST (08/16 06:00 UTC)
風向・風速北西 2m/s
視程10km以上
天気現象
なし
気温36℃
湿度10%
気圧1008hPa
METAROERK 160600Z 32004KT CAVOK 36/00 Q1008 NOSIG
過去の天気等 Google飛行場航空写真 Wunderground天気予報

過去48時間のMETAR

飛行場予報(TAF)
発表時間: 8/16 08:00 AST (8/16 05:00 UTC)
予報対象時間: 16日9時 AST ~ 17日15時 AST
風向・風速北 5m/s
視程10km以上
なし
TAF OERK 160500Z 1606/1712 36010KT CAVOK